Time;durP1;ratioP1;P1;durP2;ratioP2;P2;SDS_P1;SDS_P2;PMS_P1;PMS_P2;Temp;Humidity;BMP_temperature;BMP_pressure;BME280_temperature;BME280_humidity;BME280_pressure;Samples;Min_cycle;Max_cycle;Signal;HPM_P1;HPM_P2
2024/04/12 00:01:02;;;;;;;9.93;5.20;;;;;;;12.16;53.72;95763.84;5484418;26;20017;-75
2024/04/12 00:03:31;;;;;;;9.32;5.35;;;;;;;12.13;53.77;95771.06;5455468;26;20005;-76
2024/04/12 00:06:05;;;;;;;7.20;5.22;;;;;;;12.08;53.63;95769.59;5456395;26;19998;-76
2024/04/12 00:08:31;;;;;;;8.65;5.32;;;;;;;12.10;53.39;95761.69;5454096;26;20397;-75
2024/04/12 00:10:57;;;;;;;7.13;5.10;;;;;;;12.20;53.46;95764.44;5456026;26;19990;-75
2024/04/12 00:13:43;;;;;;;8.82;5.30;;;;;;;12.19;53.54;95763.59;5452626;26;20034;-75
2024/04/12 00:16:09;;;;;;;11.07;5.55;;;;;;;12.26;53.36;95764.00;5486397;26;20452;-76
2024/04/12 00:18:36;;;;;;;10.32;5.53;;;;;;;12.20;53.59;95765.28;5480923;26;20013;-75
2024/04/12 00:21:01;;;;;;;9.05;5.63;;;;;;;12.31;53.05;95767.06;5483813;26;20001;-75
2024/04/12 00:23:28;;;;;;;10.15;5.72;;;;;;;12.15;53.05;95750.94;5473176;26;20013;-75
2024/04/12 00:26:00;;;;;;;10.18;5.72;;;;;;;12.16;53.43;95756.00;5455714;26;19999;-75
2024/04/12 00:28:30;;;;;;;12.55;5.47;;;;;;;12.23;53.04;95769.41;5457782;26;19994;-75
2024/04/12 00:30:59;;;;;;;6.95;5.68;;;;;;;12.35;54.73;95772.91;5428467;26;20397;-75
2024/04/12 00:33:31;;;;;;;10.10;5.65;;;;;;;12.33;54.85;95767.78;5491436;26;20008;-75
2024/04/12 00:36:11;;;;;;;8.52;6.30;;;;;;;12.16;56.28;95771.66;5430305;26;20016;-75
2024/04/12 00:38:41;;;;;;;11.00;6.57;;;;;;;11.95;56.95;95784.47;5489823;26;19994;-75
2024/04/12 00:41:18;;;;;;;11.00;6.72;;;;;;;11.74;57.82;95784.22;5458643;26;19994;-75
2024/04/12 00:43:49;;;;;;;9.27;6.15;;;;;;;11.63;58.22;95774.56;5462396;26;20002;-75
2024/04/12 00:46:18;;;;;;;9.40;6.78;;;;;;;11.81;57.82;95774.19;5430051;26;20343;-75
2024/04/12 00:48:44;;;;;;;10.20;6.38;;;;;;;11.70;58.29;95788.00;5488451;26;20430;-75
2024/04/12 00:51:10;;;;;;;10.05;6.90;;;;;;;11.69;58.43;95783.72;5489674;26;20057;-75
2024/04/12 00:53:38;;;;;;;11.75;7.10;;;;;;;11.69;58.66;95788.91;5459067;26;20005;-74
2024/04/12 00:56:05;;;;;;;9.77;6.53;;;;;;;11.60;59.06;95787.81;5459652;26;20002;-75
2024/04/12 00:58:32;;;;;;;10.02;6.82;;;;;;;11.40;58.36;95773.63;5458562;26;20024;-74
2024/04/12 01:01:10;;;;;;;10.55;6.60;;;;;;;11.16;59.27;95790.94;5459293;26;19991;-75
2024/04/12 01:03:45;;;;;;;7.55;6.03;;;;;;;11.23;59.45;95788.75;5462342;26;20005;-75
2024/04/12 01:06:18;;;;;;;10.20;6.65;;;;;;;11.16;60.14;95802.19;5432987;26;20070;-75
2024/04/12 01:08:46;;;;;;;8.15;6.53;;;;;;;11.03;60.32;95795.34;5459971;26;19997;-74
2024/04/12 01:11:12;;;;;;;10.95;6.50;;;;;;;10.80;61.09;95783.91;5459945;26;20458;-75
2024/04/12 01:13:38;;;;;;;9.30;6.28;;;;;;;10.56;61.44;95796.78;5428802;26;19994;-75
2024/04/12 01:16:05;;;;;;;8.65;6.28;;;;;;;10.59;62.13;95796.63;5456981;26;20005;-75
2024/04/12 01:18:32;;;;;;;8.23;6.20;;;;;;;10.54;62.42;95799.50;5489033;26;19986;-75
2024/04/12 01:21:06;;;;;;;8.93;6.22;;;;;;;10.49;63.00;95780.81;5459168;26;20331;-75
2024/04/12 01:23:33;;;;;;;9.52;5.85;;;;;;;10.62;62.78;95794.63;5489182;26;20066;-75
2024/04/12 01:25:59;;;;;;;10.07;6.35;;;;;;;10.65;62.76;95789.22;5465434;26;19995;-75
2024/04/12 01:28:26;;;;;;;9.82;6.07;;;;;;;10.44;63.10;95782.88;5422973;26;19997;-75
2024/04/12 01:30:59;;;;;;;10.75;6.30;;;;;;;10.39;63.31;95775.41;5452416;26;19998;-75
2024/04/12 01:33:25;;;;;;;8.55;5.93;;;;;;;10.40;63.42;95773.63;5452092;26;20459;-75
2024/04/12 01:35:52;;;;;;;10.10;6.40;;;;;;;10.59;63.44;95776.66;5428238;26;19998;-75
2024/04/12 01:38:19;;;;;;;10.50;6.50;;;;;;;10.69;62.83;95782.88;5489515;26;20443;-75
2024/04/12 01:41:21;;;;;;;11.38;6.40;;;;;;;10.49;63.22;95747.03;5487760;26;19994;-76
2024/04/12 01:43:38;;;;;;;12.65;6.88;;;;;;;10.53;62.08;95774.47;5485872;26;19998;-76
2024/04/12 01:46:10;;;;;;;9.63;5.72;;;;;;;10.54;61.66;95772.72;5458735;26;20428;-76
2024/04/12 01:48:35;;;;;;;14.02;6.47;;;;;;;10.66;61.60;95787.47;5459676;26;19994;-75
2024/04/12 01:51:02;;;;;;;8.50;6.15;;;;;;;10.66;61.56;95787.47;5488536;26;19997;-75
2024/04/12 01:53:28;;;;;;;8.43;5.90;;;;;;;10.73;61.79;95789.53;5457445;26;19990;-74
2024/04/12 01:55:55;;;;;;;10.07;6.10;;;;;;;10.64;61.64;95784.13;5458500;26;20451;-75
2024/04/12 01:58:20;;;;;;;9.57;6.13;;;;;;;10.84;60.93;95788.00;5488717;26;19986;-75
2024/04/12 02:00:46;;;;;;;8.63;5.70;;;;;;;10.81;61.17;95794.22;5424262;26;19991;-75
2024/04/12 02:03:13;;;;;;;8.63;5.88;;;;;;;10.72;60.74;95777.47;5487909;26;20010;-74
2024/04/12 02:05:38;;;;;;;14.20;6.82;;;;;;;10.87;60.49;95782.56;5458251;26;20084;-75
2024/04/12 02:08:10;;;;;;;10.45;6.07;;;;;;;10.91;60.24;95776.22;5488379;26;20448;-75
2024/04/12 02:10:41;;;;;;;11.30;6.03;;;;;;;10.91;60.21;95794.41;5429396;26;20006;-75
2024/04/12 02:13:06;;;;;;;11.15;6.43;;;;;;;10.82;60.55;95787.25;5430422;26;19998;-75
2024/04/12 02:15:32;;;;;;;9.25;6.55;;;;;;;10.87;60.34;95787.78;5550069;25;20072;-75
2024/04/12 02:17:58;;;;;;;9.32;5.97;;;;;;;10.85;60.23;95761.88;5488094;26;19990;-75
2024/04/12 02:20:28;;;;;;;12.02;5.90;;;;;;;10.96;59.79;95772.38;5456624;26;20002;-75
2024/04/12 02:22:56;;;;;;;13.23;6.55;;;;;;;10.92;60.04;95776.13;5459443;26;20095;-75
2024/04/12 02:25:23;;;;;;;9.10;6.13;;;;;;;10.87;60.27;95766.97;5428556;26;20504;-75
2024/04/12 02:27:55;;;;;;;11.85;6.47;;;;;;;10.91;60.59;95786.63;5456699;26;20476;-75
2024/04/12 02:30:23;;;;;;;10.80;6.85;;;;;;;10.85;60.56;95787.03;5488381;26;19990;-75
2024/04/12 02:32:52;;;;;;;8.70;6.30;;;;;;;10.82;60.77;95788.09;5458753;26;19994;-75
2024/04/12 02:35:21;;;;;;;10.90;6.65;;;;;;;10.83;60.80;95784.53;5458440;26;20016;-75
2024/04/12 02:37:48;;;;;;;13.10;6.65;;;;;;;10.87;60.57;95779.97;5487103;26;20012;-75
2024/04/12 02:40:15;;;;;;;10.02;6.78;;;;;;;10.79;60.83;95795.25;5487947;26;19990;-76
2024/04/12 02:42:44;;;;;;;11.40;6.45;;;;;;;10.61;61.04;95750.56;5488059;26;19986;-74
2024/04/12 02:45:12;;;;;;;12.20;7.15;;;;;;;10.96;60.72;95790.56;5457838;26;20022;-75
2024/04/12 02:47:41;;;;;;;12.98;7.28;;;;;;;10.95;61.25;95794.09;5462351;26;20038;-76
2024/04/12 02:50:10;;;;;;;10.88;6.78;;;;;;;10.86;61.37;95779.13;5453169;26;19991;-75
2024/04/12 02:52:40;;;;;;;11.32;6.90;;;;;;;10.94;60.87;95795.03;5422441;26;20398;-75
2024/04/12 02:55:12;;;;;;;9.63;6.55;;;;;;;10.80;61.38;95795.13;5421467;26;20493;-75
2024/04/12 02:57:41;;;;;;;10.50;6.85;;;;;;;10.70;61.53;95787.16;5423475;26;20321;-75
2024/04/12 03:00:21;;;;;;;11.20;7.13;;;;;;;10.71;61.49;95800.97;5421532;26;19994;-75
2024/04/12 03:02:53;;;;;;;11.17;6.90;;;;;;;10.60;62.22;95785.28;5424735;26;20026;-75
2024/04/12 03:05:22;;;;;;;;;;;;;;;10.62;62.36;95802.44;5471867;26;20022;-76
2024/04/12 03:07:51;;;;;;;9.77;6.70;;;;;;;10.64;62.54;95805.75;5514830;26;19924;-75
2024/04/12 03:10:18;;;;;;;9.38;6.85;;;;;;;10.52;62.80;95786.63;5454802;26;19990;-76
2024/04/12 03:12:51;;;;;;;10.40;6.75;;;;;;;10.65;62.96;95786.63;5453966;26;19990;-75
2024/04/12 03:15:20;;;;;;;10.07;6.43;;;;;;;10.77;62.56;95799.72;5487499;26;20061;-75
2024/04/12 03:17:49;;;;;;;11.48;6.85;;;;;;;10.80;62.40;95804.72;5479941;26;20067;-75
2024/04/12 03:20:15;;;;;;;11.85;6.93;;;;;;;10.50;62.82;95803.22;5417386;26;20005;-75
2024/04/12 03:22:44;;;;;;;11.10;7.15;;;;;;;10.25;63.29;95799.66;5447641;26;20005;-75
2024/04/12 03:25:09;;;;;;;11.93;6.80;;;;;;;10.23;63.83;95811.06;5415035;26;20002;-75
2024/04/12 03:27:35;;;;;;;13.45;7.88;;;;;;;10.12;64.52;95814.38;5455755;26;20062;-75
2024/04/12 03:30:00;;;;;;;13.23;7.60;;;;;;;10.28;64.48;95807.28;5484864;26;20027;-75
2024/04/12 03:32:32;;;;;;;10.13;7.20;;;;;;;10.26;64.54;95811.69;5457181;26;20035;-75
2024/04/12 03:35:00;;;;;;;10.15;6.93;;;;;;;10.29;64.62;95806.34;5487237;26;20005;-75
2024/04/12 03:37:36;;;;;;;10.85;7.38;;;;;;;10.35;64.59;95814.66;5457364;26;20062;-76
2024/04/12 03:40:16;;;;;;;11.70;6.75;;;;;;;10.12;64.24;95816.97;5487779;26;19994;-76
2024/04/12 03:42:42;;;;;;;12.93;7.07;;;;;;;9.83;65.24;95814.50;5487840;26;20007;-76
2024/04/12 03:45:14;;;;;;;9.82;7.05;;;;;;;9.88;65.32;95810.75;5485571;26;19994;-75
2024/04/12 03:47:39;;;;;;;;;;;;;;;10.03;65.35;95826.19;5488089;26;20001;-76
2024/04/12 03:50:13;;;;;;;8.20;6.47;;;;;;;9.94;65.69;95824.16;5456725;26;19952;-75
2024/04/12 03:52:41;;;;;;;9.63;6.75;;;;;;;9.91;66.53;95821.78;5458801;26;20026;-76
2024/04/12 03:55:09;;;;;;;11.07;7.55;;;;;;;9.89;66.44;95834.03;5457228;26;20001;-75
2024/04/12 03:57:38;;;;;;;10.57;7.97;;;;;;;9.75;66.38;95831.47;5487922;26;20059;-75
2024/04/12 04:00:11;;;;;;;12.57;8.10;;;;;;;9.47;66.74;95822.00;5503348;26;19994;-75
2024/04/12 04:02:36;;;;;;;11.93;8.20;;;;;;;9.57;67.15;95849.84;5484727;26;20309;-76
2024/04/12 04:05:13;;;;;;;9.35;6.90;;;;;;;9.63;67.34;95846.88;5454627;26;20017;-76
2024/04/12 04:07:39;;;;;;;10.80;7.55;;;;;;;9.67;67.15;95850.13;5479663;26;19994;-76
2024/04/12 04:10:10;;;;;;;41.22;15.32;;;;;;;9.33;67.64;95813.34;5460077;26;20064;-76
2024/04/12 04:12:44;;;;;;;16.13;8.90;;;;;;;9.40;68.17;95858.69;5474370;26;20104;-76
2024/04/12 04:15:15;;;;;;;11.98;7.55;;;;;;;9.39;68.24;95862.22;5487389;26;20005;-76
2024/04/12 04:17:47;;;;;;;11.07;7.90;;;;;;;9.45;68.62;95865.38;5427545;26;20007;-76
2024/04/12 04:20:14;;;;;;;12.25;7.25;;;;;;;9.45;68.42;95849.81;5458318;26;20005;-76
2024/04/12 04:22:40;;;;;;;10.25;7.05;;;;;;;9.53;68.60;95863.97;5458373;26;20352;-76
2024/04/12 04:25:09;;;;;;;12.55;7.80;;;;;;;9.51;69.04;95845.06;5426494;26;20038;-76
2024/04/12 04:27:35;;;;;;;12.10;7.43;;;;;;;9.54;68.83;95859.59;5473334;26;20013;-76
2024/04/12 04:30:00;;;;;;;12.55;7.70;;;;;;;9.29;69.15;95830.00;5459317;26;20002;-76
2024/04/12 04:32:26;;;;;;;13.23;7.68;;;;;;;9.42;69.69;95852.56;5490415;26;20017;-76
2024/04/12 04:34:54;;;;;;;15.85;8.38;;;;;;;9.30;69.22;95831.66;5484753;26;20448;-76
2024/04/12 04:37:23;;;;;;;15.48;9.15;;;;;;;9.50;68.94;95868.47;5427011;26;20062;-76
2024/04/12 04:39:48;;;;;;;24.80;8.40;;;;;;;9.68;69.10;95848.38;5452641;26;20326;-76
2024/04/12 04:42:14;;;;;;;15.63;8.48;;;;;;;9.74;68.33;95853.16;5528066;25;20057;-76
2024/04/12 04:44:42;;;;;;;11.32;8.82;;;;;;;9.81;68.53;95855.28;5479287;26;20030;-76
2024/04/12 04:47:08;;;;;;;14.95;8.38;;;;;;;10.42;67.54;95863.50;5473338;26;19999;-77
2024/04/12 04:49:33;;;;;;;14.05;8.18;;;;;;;11.02;65.55;95872.50;5470835;26;20372;-76
2024/04/12 04:52:01;;;;;;;15.30;7.93;;;;;;;11.63;61.85;95868.28;5456405;26;19998;-76
2024/04/12 04:54:27;;;;;;;11.20;7.78;;;;;;;12.22;61.22;95874.56;5486827;26;19998;-76
2024/04/12 04:56:53;;;;;;;10.32;7.35;;;;;;;12.27;60.77;95851.63;5456632;26;20362;-76
2024/04/12 04:59:28;;;;;;;10.50;7.75;;;;;;;12.88;59.21;95873.13;5518548;26;20009;-77
2024/04/12 05:01:53;;;;;;;10.30;8.35;;;;;;;13.43;57.25;95869.88;5514775;25;19995;-76
2024/04/12 05:04:20;;;;;;;12.02;8.50;;;;;;;13.94;55.70;95875.41;5517497;26;20035;-76
2024/04/12 05:06:47;;;;;;;16.33;8.70;;;;;;;14.30;54.51;95874.25;5457291;26;20070;-76
2024/04/12 05:09:13;;;;;;;21.05;9.73;;;;;;;14.63;54.01;95869.06;5489453;26;20074;-76
2024/04/12 05:11:39;;;;;;;16.98;8.20;;;;;;;15.58;51.57;95868.91;5430762;26;20010;-76
2024/04/12 05:14:14;;;;;;;13.85;8.00;;;;;;;16.22;50.26;95878.19;5513196;26;20070;-76
2024/04/12 05:16:46;;;;;;;13.10;8.30;;;;;;;16.67;49.51;95875.03;5458087;26;20025;-76
2024/04/12 05:19:12;;;;;;;18.88;8.45;;;;;;;16.66;48.47;95870.75;5487063;26;19998;-76
2024/04/12 05:21:40;;;;;;;16.63;9.30;;;;;;;15.58;49.54;95864.50;5455918;26;19994;-76
2024/04/12 05:24:09;;;;;;;18.55;9.52;;;;;;;15.86;50.81;95865.56;5453044;26;20425;-76
2024/04/12 05:26:41;;;;;;;23.05;10.27;;;;;;;15.37;49.76;95868.94;5462377;26;20010;-75
2024/04/12 05:29:11;;;;;;;22.05;10.40;;;;;;;14.65;51.24;95878.41;5479432;26;20001;-75
2024/04/12 05:31:36;;;;;;;27.17;10.82;;;;;;;14.85;51.33;95878.53;5495015;25;20002;-76
2024/04/12 05:34:04;;;;;;;22.90;9.90;;;;;;;14.68;52.02;95882.56;5443586;26;20020;-76
2024/04/12 05:36:32;;;;;;;22.40;10.27;;;;;;;14.68;51.61;95878.19;5489722;26;20047;-76
2024/04/12 05:39:08;;;;;;;24.13;11.43;;;;;;;14.91;51.42;95878.06;5448649;26;20386;-77
2024/04/12 05:41:35;;;;;;;24.00;10.27;;;;;;;14.16;52.51;95885.00;5455465;26;20455;-72
2024/04/12 05:44:01;;;;;;;21.65;10.52;;;;;;;13.89;52.82;95872.34;5486452;26;20393;-76
2024/04/12 05:46:28;;;;;;;22.52;11.02;;;;;;;13.83;53.53;95881.50;5450273;26;20026;-74
2024/04/12 05:48:53;;;;;;;20.45;10.35;;;;;;;14.25;53.14;95870.34;5455873;26;20063;-72
2024/04/12 05:51:19;;;;;;;23.85;10.15;;;;;;;14.82;51.18;95886.66;5486466;26;20010;-75
2024/04/12 05:53:51;;;;;;;24.13;10.95;;;;;;;14.42;52.11;95880.25;5485465;26;20009;-74
2024/04/12 05:56:25;;;;;;;19.75;10.18;;;;;;;14.45;51.92;95869.56;5458416;26;20317;-75
2024/04/12 05:58:51;;;;;;;25.35;11.23;;;;;;;14.69;51.51;95874.59;5485172;26;20006;-74
2024/04/12 06:01:17;;;;;;;23.58;11.05;;;;;;;15.28;51.24;95885.44;5457004;26;20066;-82
2024/04/12 06:03:45;;;;;;;34.50;11.20;;;;;;;15.57;49.47;95880.31;5454587;26;20024;-73
2024/04/12 06:06:13;;;;;;;27.65;10.85;;;;;;;15.44;49.53;95880.56;5485535;26;20353;-73
2024/04/12 06:08:41;;;;;;;26.05;11.30;;;;;;;15.47;49.77;95879.47;5483088;26;20086;-73
2024/04/12 06:11:09;;;;;;;33.60;12.52;;;;;;;15.63;49.01;95880.63;5454315;26;19998;-73
2024/04/12 06:13:40;;;;;;;26.30;11.48;;;;;;;15.38;49.55;95873.22;5487808;26;20042;-74
2024/04/12 06:16:07;;;;;;;20.90;10.98;;;;;;;15.58;50.05;95866.28;5475086;26;20014;-73
2024/04/12 06:18:32;;;;;;;21.23;10.52;;;;;;;15.82;49.48;95868.56;5446856;26;20002;-73
2024/04/12 06:21:01;;;;;;;22.52;11.50;;;;;;;15.91;49.31;95872.19;5484436;26;20042;-77
2024/04/12 06:23:26;;;;;;;23.58;12.02;;;;;;;16.14;48.68;95880.66;5411067;26;20002;-74
2024/04/12 06:25:58;;;;;;;24.83;9.90;;;;;;;16.45;48.57;95882.22;5486107;26;19994;-74
2024/04/12 06:28:24;;;;;;;27.75;10.32;;;;;;;16.39;49.47;95877.53;5485925;26;19998;-75
2024/04/12 06:30:52;;;;;;;27.88;9.93;;;;;;;16.94;47.75;95879.63;5486795;26;20009;-74
2024/04/12 06:33:22;;;;;;;33.00;10.02;;;;;;;17.23;46.88;95866.41;5482060;26;20074;-73
2024/04/12 06:35:49;;;;;;;21.07;10.37;;;;;;;17.54;45.78;95876.69;5485271;26;20001;-74
2024/04/12 06:38:21;;;;;;;21.13;9.80;;;;;;;17.67;45.42;95865.88;5425618;26;19998;-73
2024/04/12 06:40:55;;;;;;;19.25;9.98;;;;;;;16.69;46.32;95862.63;5483061;26;19994;-73
2024/04/12 06:43:21;;;;;;;22.17;10.20;;;;;;;16.71;47.08;95865.91;5457330;26;20044;-74
2024/04/12 06:46:00;;;;;;;22.55;10.02;;;;;;;16.80;46.69;95873.00;5457531;26;20337;-74
2024/04/12 06:48:26;;;;;;;21.52;11.38;;;;;;;16.68;46.83;95876.69;5487921;26;20005;-74
2024/04/12 06:50:54;;;;;;;18.77;9.57;;;;;;;17.32;45.76;95877.88;5489566;26;20550;-74
2024/04/12 06:53:21;;;;;;;16.42;9.55;;;;;;;17.48;44.82;95875.47;5489591;26;19990;-73
2024/04/12 06:55:49;;;;;;;15.75;9.68;;;;;;;17.38;45.99;95878.13;5489428;26;20508;-74
2024/04/12 06:58:17;;;;;;;16.08;9.88;;;;;;;17.77;44.98;95867.44;5488173;26;20005;-73
2024/04/12 07:00:43;;;;;;;17.77;10.07;;;;;;;17.72;44.71;95871.47;5456785;26;19994;-74
2024/04/12 07:03:15;;;;;;;23.88;9.82;;;;;;;17.59;44.74;95869.22;5487594;26;20332;-74
2024/04/12 07:05:47;;;;;;;17.15;9.60;;;;;;;17.72;45.25;95872.34;5515887;26;20070;-74
2024/04/12 07:08:16;;;;;;;17.65;9.68;;;;;;;18.20;44.05;95871.25;5544375;25;20006;-74
2024/04/12 07:10:41;;;;;;;22.60;9.65;;;;;;;17.79;44.36;95868.16;5548432;25;20017;-74
2024/04/12 07:13:07;;;;;;;20.58;10.27;;;;;;;17.68;44.68;95860.44;5516881;25;19990;-74
2024/04/12 07:15:33;;;;;;;23.17;11.13;;;;;;;18.17;44.12;95876.00;5427247;26;20354;-74
2024/04/12 07:18:02;;;;;;;22.02;11.15;;;;;;;18.63;43.35;95872.31;5427150;26;19990;-74
2024/04/12 07:20:33;;;;;;;23.35;11.07;;;;;;;18.82;42.48;95876.63;5458135;26;20509;-74
2024/04/12 07:22:58;;;;;;;22.17;11.05;;;;;;;19.01;42.71;95873.00;5489438;26;20455;-74
2024/04/12 07:25:24;;;;;;;20.95;10.75;;;;;;;18.80;43.52;95859.34;5489102;26;20000;-74
2024/04/12 07:27:53;;;;;;;16.15;10.65;;;;;;;19.40;42.10;95859.44;5427092;26;19997;-74
2024/04/12 07:30:20;;;;;;;16.60;11.02;;;;;;;19.70;41.52;95865.22;5429126;26;20001;-74
2024/04/12 07:32:46;;;;;;;20.67;11.25;;;;;;;19.49;40.68;95842.69;5455438;26;20388;-74
2024/04/12 07:35:26;;;;;;;26.10;11.40;;;;;;;19.68;41.29;95861.91;5427011;26;20002;-74
2024/04/12 07:37:59;;;;;;;20.13;11.80;;;;;;;19.33;41.70;95847.84;5435036;26;19990;-74
2024/04/12 07:40:25;;;;;;;18.20;11.20;;;;;;;19.91;40.67;95856.88;5457747;26;19990;-74
2024/04/12 07:42:52;;;;;;;23.33;10.23;;;;;;;20.30;38.45;95851.88;5489120;26;20001;-74
2024/04/12 07:45:25;;;;;;;19.27;9.82;;;;;;;20.52;38.22;95856.53;5427589;26;20044;-74
2024/04/12 07:47:55;;;;;;;23.00;10.18;;;;;;;20.66;38.15;95846.34;5548337;25;20008;-74
2024/04/12 07:50:31;;;;;;;20.10;10.20;;;;;;;19.85;39.21;95830.16;5457390;26;20002;-74
2024/04/12 07:55:45;;;;;;;22.05;9.68;;;;;;;20.26;36.90;95840.03;5462026;26;20005;-74
2024/04/12 07:58:12;;;;;;;20.45;9.40;;;;;;;20.29;37.14;95829.97;5456870;26;20339;-74
2024/04/12 08:00:45;;;;;;;14.25;9.98;;;;;;;20.30;38.20;95847.44;5457339;26;20312;-74
2024/04/12 08:03:15;;;;;;;22.48;10.93;;;;;;;20.13;38.22;95845.75;5487368;26;20004;-74
2024/04/12 08:08:31;;;;;;;17.42;9.75;;;;;;;20.35;38.12;95832.94;5462144;26;20005;-74
2024/04/12 08:10:57;;;;;;;16.77;8.95;;;;;;;20.71;37.80;95831.66;5457260;26;19990;-74
2024/04/12 08:13:37;;;;;;;14.75;8.65;;;;;;;21.00;37.09;95826.88;5517610;25;19994;-73
2024/04/12 08:16:08;;;;;;;14.07;9.13;;;;;;;21.40;36.96;95836.59;5486534;26;19994;-74
2024/04/12 08:18:35;;;;;;;17.55;9.32;;;;;;;21.30;36.14;95820.03;5486476;26;20021;-73
2024/04/12 08:21:07;;;;;;;17.40;8.73;;;;;;;21.48;36.06;95830.44;5488026;26;20319;-73
2024/04/12 08:23:32;;;;;;;18.05;8.45;;;;;;;21.69;35.88;95830.69;5515988;26;19994;-73
2024/04/12 08:26:09;;;;;;;20.42;9.07;;;;;;;22.01;35.27;95832.38;5486774;26;20031;-73
2024/04/12 08:28:36;;;;;;;15.88;8.93;;;;;;;21.95;35.60;95826.94;5458744;26;19990;-73
2024/04/12 08:31:05;;;;;;;16.70;9.35;;;;;;;21.84;36.35;95829.00;5487740;26;19990;-73
2024/04/12 08:33:32;;;;;;;24.75;9.95;;;;;;;21.85;35.78;95832.44;5456889;26;19990;-73
2024/04/12 08:35:57;;;;;;;19.70;9.68;;;;;;;21.27;34.72;95839.69;5487884;26;19994;-74
2024/04/12 08:38:23;;;;;;;15.48;9.30;;;;;;;21.53;35.38;95828.09;5486762;26;20023;-73
2024/04/12 08:40:52;;;;;;;17.40;8.75;;;;;;;21.08;35.21;95829.50;5486374;26;20006;-73
2024/04/12 08:43:19;;;;;;;19.00;9.25;;;;;;;21.29;35.59;95813.94;5426744;26;20077;-73
2024/04/12 08:45:47;;;;;;;17.73;9.13;;;;;;;21.01;35.07;95828.53;5486243;26;19990;-74
2024/04/12 08:48:14;;;;;;;18.33;8.48;;;;;;;21.00;35.41;95816.31;5486082;26;19994;-73
2024/04/12 08:50:39;;;;;;;17.80;8.68;;;;;;;20.75;35.58;95827.72;5487430;26;19991;-73
2024/04/12 08:53:11;;;;;;;13.35;9.15;;;;;;;20.86;35.13;95823.91;5489688;26;19991;-73
2024/04/12 08:55:42;;;;;;;12.55;8.00;;;;;;;21.15;36.13;95822.56;5489679;26;20017;-73
2024/04/12 08:58:08;;;;;;;15.80;8.73;;;;;;;21.60;34.60;95821.16;5519480;26;20436;-73
2024/04/12 09:00:33;;;;;;;13.73;8.82;;;;;;;21.59;34.25;95811.56;5520721;26;20005;-73
2024/04/12 09:03:03;;;;;;;12.57;8.45;;;;;;;21.60;34.52;95807.94;5489566;26;19994;-73
2024/04/12 09:05:32;;;;;;;16.17;9.02;;;;;;;21.69;34.14;95806.91;5460446;26;19991;-73
2024/04/12 09:08:03;;;;;;;20.35;9.02;;;;;;;21.47;36.52;95797.88;5460272;26;20002;-73
2024/04/12 09:10:34;;;;;;;;;;;;;;;21.17;34.87;95807.34;5491986;26;19998;-73
2024/04/12 09:13:20;;;;;;;14.15;8.70;;;;;;;21.55;35.24;95811.06;5491134;26;20362;-73
2024/04/12 09:15:45;;;;;;;14.73;8.57;;;;;;;21.70;34.46;95800.59;5488496;26;20058;-73
2024/04/12 09:18:15;;;;;;;16.08;8.82;;;;;;;21.99;34.49;95802.63;5491329;26;19990;-73
2024/04/12 09:20:43;;;;;;;12.77;8.60;;;;;;;22.07;35.05;95799.13;5459473;26;19994;-73
2024/04/12 09:23:15;;;;;;;19.10;9.98;;;;;;;21.57;34.77;95787.94;5519580;25;20306;-73
2024/04/12 09:25:45;;;;;;;14.90;8.93;;;;;;;21.65;34.63;95795.03;5489004;26;19994;-73
2024/04/12 09:28:13;;;;;;;15.63;8.27;;;;;;;21.81;34.23;95786.19;5459989;26;20000;-73
2024/04/12 09:33:27;;;;;;;15.25;8.43;;;;;;;22.03;33.09;95779.28;5463536;26;20091;-73
2024/04/12 09:35:53;;;;;;;12.50;9.00;;;;;;;21.41;34.38;95767.69;5459090;26;19990;-73
2024/04/12 09:38:21;;;;;;;12.40;8.80;;;;;;;21.56;33.90;95774.88;5428888;26;20320;-73
2024/04/12 09:40:52;;;;;;;15.07;9.23;;;;;;;21.98;32.74;95773.69;5519341;26;20002;-73
2024/04/12 09:45:45;;;;;;;13.93;8.60;;;;;;;21.49;33.33;95761.53;5519869;25;20063;-73
2024/04/12 10:37:51;;;;;;;11.10;8.35;;;;;;;22.23;32.52;95724.97;5514897;26;20005;-73
2024/04/12 10:40:16;;;;;;;12.75;8.48;;;;;;;22.36;33.10;95708.47;5458295;26;19995;-73
2024/04/12 10:42:45;;;;;;;11.77;8.85;;;;;;;22.50;32.80;95717.44;5457958;26;20043;-73
2024/04/12 10:45:17;;;;;;;14.80;8.85;;;;;;;22.38;32.10;95722.34;5488431;26;20334;-73
2024/04/12 10:47:45;;;;;;;25.55;16.33;;;;;;;22.22;32.69;95725.13;5430620;26;19990;-73
2024/04/12 10:50:11;;;;;;;10.45;8.05;;;;;;;22.38;31.98;95700.34;5429309;26;19997;-73
2024/04/12 10:52:38;;;;;;;12.63;7.78;;;;;;;22.71;31.21;95714.94;5518730;26;20380;-73
2024/04/12 10:55:09;;;;;;;11.57;8.07;;;;;;;22.71;31.79;95706.19;5487861;26;20317;-73
2024/04/12 10:57:40;;;;;;;15.30;8.48;;;;;;;22.86;30.63;95708.84;5488010;26;20066;-74
2024/04/12 11:00:14;;;;;;;14.40;8.77;;;;;;;22.57;31.36;95712.28;5487921;26;20005;-73
2024/04/12 11:02:43;;;;;;;15.25;8.73;;;;;;;22.64;31.70;95705.25;5488147;26;19990;-74
2024/04/12 11:07:47;;;;;;;12.90;7.97;;;;;;;22.55;31.92;95690.44;5516671;26;20442;-73
2024/04/12 11:10:24;;;;;;;14.35;8.18;;;;;;;22.37;30.76;95703.97;5457325;26;19994;-73
2024/04/12 11:12:59;;;;;;;16.13;8.35;;;;;;;22.62;30.74;95696.66;5460836;26;20014;-73
2024/04/12 11:31:59;;;;;;;20.77;10.55;;;;;;;22.97;30.66;95671.31;5486780;26;20099;-73
2024/04/12 11:34:26;;;;;;;11.65;8.05;;;;;;;23.09;30.84;95659.25;5483277;26;19994;-72
2024/04/12 11:36:55;;;;;;;17.75;9.43;;;;;;;23.20;30.42;95669.38;5456741;26;20005;-73
2024/04/12 11:39:27;;;;;;;13.88;7.97;;;;;;;23.05;30.98;95654.50;5423681;26;19998;-72
2024/04/12 11:41:55;;;;;;;16.05;8.00;;;;;;;23.36;30.70;95663.06;5450946;26;19994;-72
2024/04/12 11:44:23;;;;;;;12.48;8.52;;;;;;;23.14;31.16;95651.56;5466135;26;19999;-72
2024/04/12 11:46:49;;;;;;;13.20;7.93;;;;;;;23.10;30.53;95645.00;5474704;26;20001;-72
2024/04/12 11:49:27;;;;;;;14.10;8.20;;;;;;;23.17;31.16;95648.53;5481495;26;20008;-72
2024/04/12 11:51:56;;;;;;;13.45;8.07;;;;;;;23.10;30.54;95645.00;5452839;26;20071;-72
2024/04/12 11:54:28;;;;;;;13.32;7.97;;;;;;;23.19;31.17;95638.59;5450170;26;20002;-72
2024/04/12 11:57:00;;;;;;;14.20;8.52;;;;;;;23.23;30.90;95631.09;5453419;26;20023;-71
2024/04/12 11:59:29;;;;;;;15.50;8.30;;;;;;;23.09;31.16;95634.59;5448690;26;20003;-72
2024/04/12 12:01:59;;;;;;;17.98;8.57;;;;;;;23.20;30.67;95636.75;5435113;26;20005;-72
2024/04/12 12:04:27;;;;;;;18.40;8.18;;;;;;;23.32;30.33;95639.78;5455234;26;20005;-72
2024/04/12 12:06:54;;;;;;;12.15;7.90;;;;;;;23.11;29.58;95630.75;5484671;26;20355;-71
2024/04/12 12:09:20;;;;;;;13.60;7.30;;;;;;;22.97;29.27;95636.88;5456212;26;20002;-72
2024/04/12 12:11:49;;;;;;;13.27;7.53;;;;;;;23.12;30.25;95629.75;5481707;26;20462;-72
2024/04/12 12:14:15;;;;;;;10.90;7.93;;;;;;;23.23;30.26;95630.25;5486254;26;20436;-75
2024/04/12 12:16:40;;;;;;;25.23;12.70;;;;;;;23.22;30.01;95625.97;5423725;26;20009;-71
2024/04/12 12:19:06;;;;;;;12.43;8.15;;;;;;;23.62;30.90;95613.97;5486191;26;19994;-71
2024/04/12 12:21:33;;;;;;;12.60;7.93;;;;;;;23.52;29.89;95606.34;5483313;26;20002;-72
2024/04/12 12:23:59;;;;;;;11.45;8.10;;;;;;;23.86;30.08;95604.84;5454919;26;19999;-72
2024/04/12 12:26:25;;;;;;;15.02;9.27;;;;;;;23.90;29.58;95610.59;5457177;26;20067;-72
2024/04/12 12:28:50;;;;;;;15.70;8.13;;;;;;;23.81;30.16;95599.31;5487630;26;20009;-72
2024/04/12 12:31:18;;;;;;;17.25;8.13;;;;;;;23.89;30.14;95606.31;5486987;26;20002;-72
2024/04/12 12:33:45;;;;;;;17.70;10.77;;;;;;;23.75;29.80;95602.72;5486782;26;20009;-72
2024/04/12 12:36:11;;;;;;;9.70;7.50;;;;;;;23.97;30.33;95601.69;5459405;26;20009;-72
2024/04/12 12:38:40;;;;;;;13.30;7.88;;;;;;;23.69;29.35;95604.25;5457315;26;20051;-71
2024/04/12 12:41:06;;;;;;;19.20;10.27;;;;;;;23.81;30.11;95588.69;5457216;26;19994;-72
2024/04/12 12:43:32;;;;;;;14.15;8.43;;;;;;;23.98;29.41;95587.41;5487764;26;20002;-71
2024/04/12 12:45:57;;;;;;;13.63;8.27;;;;;;;23.63;29.58;95589.13;5488005;26;20031;-72
2024/04/12 12:48:27;;;;;;;12.20;7.78;;;;;;;23.88;29.98;95578.16;5489475;26;20031;-72
2024/04/12 12:50:56;;;;;;;11.55;7.75;;;;;;;24.02;30.27;95588.69;5487252;26;20059;-72
2024/04/12 12:53:22;;;;;;;14.73;10.05;;;;;;;23.86;29.50;95586.28;5488930;26;20002;-72